createdAt,value
2022-11-28T15:06:21.042Z,95777.16
2022-11-28T15:08:57.099Z,95777.97
2022-11-28T15:12:03.772Z,95782.47
2022-11-28T15:14:33.397Z,95785.88
2022-11-28T15:17:07.072Z,95777.69
2022-11-28T15:19:42.685Z,95784.75
2022-11-28T15:22:47.005Z,95773.78
2022-11-28T15:25:40.830Z,95778.50
2022-11-28T15:28:18.296Z,95768.25
2022-11-28T15:30:48.568Z,95765.91
2022-11-28T15:33:16.393Z,95765.50
2022-11-28T15:36:04.723Z,95769.00
2022-11-28T15:38:32.839Z,95769.94
2022-11-28T15:41:00.915Z,95772.81
2022-11-28T15:43:31.700Z,95769.66
2022-11-28T15:46:01.771Z,95770.31
2022-11-28T15:48:38.997Z,95771.00
2022-11-28T15:51:09.066Z,95761.59
2022-11-28T15:53:42.501Z,95766.66
2022-11-28T15:56:15.820Z,95758.84
2022-11-28T15:58:52.747Z,95765.53
2022-11-28T16:01:28.408Z,95768.28
2022-11-28T16:04:18.874Z,95765.69
2022-11-28T16:06:52.473Z,95764.06
2022-11-28T16:09:20.268Z,95753.16
2022-11-28T16:11:53.215Z,95757.50
2022-11-28T16:14:29.369Z,95761.03
2022-11-28T16:16:58.915Z,95761.66
2022-11-28T16:19:31.338Z,95760.25
2022-11-28T16:22:01.804Z,95762.03
2022-11-28T16:24:38.579Z,95748.53
2022-11-28T16:27:07.029Z,95753.34
2022-11-28T16:29:36.204Z,95753.75
2022-11-28T16:32:27.202Z,95752.22
2022-11-28T16:34:55.799Z,95757.66
2022-11-28T16:37:25.943Z,95758.34
2022-11-28T16:40:17.228Z,95749.91
2022-11-28T16:42:53.448Z,95752.22
2022-11-28T16:45:30.810Z,95750.75
2022-11-28T16:48:08.910Z,95751.28
2022-11-28T16:50:37.859Z,95752.91
2022-11-28T16:53:05.701Z,95762.72
2022-11-28T16:55:33.841Z,95757.28
2022-11-28T16:58:12.345Z,95755.63
2022-11-28T17:00:44.205Z,95753.16
2022-11-28T17:03:41.403Z,95755.34
2022-11-28T17:06:17.010Z,95753.84
2022-11-28T17:08:45.496Z,95752.22
2022-11-28T17:11:15.798Z,95754.94
2022-11-28T17:13:43.455Z,95758.22
2022-11-28T17:16:19.664Z,95760.50
2022-11-28T17:18:47.972Z,95761.88
2022-11-28T17:21:22.007Z,95756.03
2022-11-28T17:23:49.869Z,95755.06
2022-11-28T17:26:17.490Z,95763.78
2022-11-28T17:28:45.120Z,95758.34
2022-11-28T17:31:14.869Z,95763.25
2022-11-28T17:33:44.776Z,95760.50
2022-11-28T17:36:13.342Z,95780.97
2022-11-28T17:38:41.213Z,95760.00
2022-11-28T17:41:13.909Z,95763.41
2022-11-28T17:43:42.863Z,95763.25
2022-11-28T17:46:10.654Z,95768.28
2022-11-28T17:48:38.348Z,95771.03
2022-11-28T17:51:06.770Z,95770.06
2022-11-28T17:53:34.943Z,95759.84
2022-11-28T17:56:02.817Z,95767.88
2022-11-28T17:58:30.639Z,95759.56
2022-11-28T18:01:00.725Z,95770.34
2022-11-28T18:03:29.355Z,95768.72
2022-11-28T18:05:56.976Z,95774.84
2022-11-28T18:08:24.835Z,95772.66
2022-11-28T18:11:03.556Z,95772.38
2022-11-28T18:13:31.659Z,95771.72
2022-11-28T18:15:59.469Z,95776.34
2022-11-28T18:18:28.199Z,95782.31
2022-11-28T18:20:56.167Z,95782.72
2022-11-28T18:23:23.867Z,95783.81
2022-11-28T18:25:52.205Z,95781.09
2022-11-28T18:28:22.336Z,95782.31
2022-11-28T18:30:50.169Z,95780.41
2022-11-28T18:33:18.124Z,95776.88
2022-11-28T18:35:45.954Z,95771.28
2022-11-28T18:38:13.991Z,95770.59
2022-11-28T18:40:42.258Z,95774.16
2022-11-28T18:43:09.910Z,95773.88
2022-11-28T18:45:37.790Z,95772.78
2022-11-28T18:48:06.229Z,95769.13
2022-11-28T18:50:35.348Z,95774.84
2022-11-28T18:53:03.188Z,95767.19
2022-11-28T18:55:30.874Z,95774.16
2022-11-28T18:57:58.634Z,95780.97
2022-11-28T19:00:26.371Z,95771.44
2022-11-28T19:02:55.158Z,95775.41
2022-11-28T19:05:23.695Z,95782.06
2022-11-28T19:07:51.891Z,95785.59
2022-11-28T19:10:20.813Z,95793.38
2022-11-28T19:12:48.459Z,95784.91
2022-11-28T19:15:16.119Z,95787.66
2022-11-28T19:17:43.884Z,95791.19
2022-11-28T19:20:12.247Z,95792.41
2022-11-28T19:22:39.854Z,95790.63
2022-11-28T19:25:08.294Z,95785.59
2022-11-28T19:27:35.986Z,95789.00
2022-11-28T19:30:04.853Z,95788.59
2022-11-28T19:32:32.784Z,95786.69
2022-11-28T19:35:00.590Z,95790.63
2022-11-28T19:37:29.576Z,95788.84
2022-11-28T19:40:01.156Z,95779.06
2022-11-28T19:42:30.498Z,95777.41
2022-11-28T19:44:58.981Z,95790.63
2022-11-28T19:47:26.793Z,95779.59
2022-11-28T19:49:54.493Z,95785.31
2022-11-28T19:52:22.936Z,95791.84
2022-11-28T19:54:51.186Z,95790.19
2022-11-28T19:57:20.864Z,95799.47
2022-11-28T19:59:48.753Z,95797.13
2022-11-28T20:02:17.872Z,95804.78
2022-11-28T20:04:45.896Z,95796.31
2022-11-28T20:07:14.039Z,95800.94
2022-11-28T20:09:42.542Z,95800.81
2022-11-28T20:12:10.495Z,95809.13
2022-11-28T20:14:38.575Z,95801.78
2022-11-28T20:17:07.156Z,95813.22
2022-11-28T20:19:34.868Z,95805.88
2022-11-28T20:22:02.716Z,95802.78
2022-11-28T20:24:30.950Z,95812.84
2022-11-28T20:26:58.692Z,95814.75
2022-11-28T20:29:28.092Z,95812.84
2022-11-28T20:31:57.473Z,95815.00
2022-11-28T20:34:28.225Z,95809.69
2022-11-28T20:36:55.928Z,95815.56
2022-11-28T20:39:24.349Z,95810.38
2022-11-28T20:41:55.138Z,95818.56
2022-11-28T20:44:22.943Z,95814.59
2022-11-28T20:46:50.724Z,95810.09
2022-11-28T20:49:18.784Z,95810.78
2022-11-28T20:51:47.519Z,95807.66
2022-11-28T20:54:15.226Z,95808.84
2022-11-28T20:57:19.578Z,95810.09
2022-11-28T20:59:32.439Z,95810.66
2022-11-28T21:02:00.071Z,95805.22
2022-11-28T21:04:27.822Z,95814.97
2022-11-28T21:06:55.409Z,95823.19
2022-11-28T21:09:23.250Z,95818.81
2022-11-28T21:11:57.439Z,95817.03
2022-11-28T21:14:26.891Z,95806.56
2022-11-28T21:16:54.817Z,95816.91
2022-11-28T21:19:22.630Z,95821.94
2022-11-28T21:21:50.366Z,95825.22
2022-11-28T21:24:18.081Z,95824.56
2022-11-28T21:26:51.244Z,95821.28
